createdAt,value
2022-12-09T00:02:13.670Z,8.93
2022-12-09T00:06:24.728Z,8.85
2022-12-09T00:10:26.299Z,10.57
2022-12-09T00:14:27.733Z,10.77
2022-12-09T00:18:33.360Z,12.90
2022-12-09T00:22:34.786Z,8.60
2022-12-09T00:26:38.617Z,9.55
2022-12-09T00:30:40.484Z,8.10
2022-12-09T00:34:44.351Z,10.93
2022-12-09T00:38:46.484Z,10.88
2022-12-09T00:42:47.957Z,11.05
2022-12-09T00:46:49.548Z,10.38
2022-12-09T00:50:51.035Z,12.75
2022-12-09T00:54:52.511Z,12.05
2022-12-09T00:58:54.458Z,8.30
2022-12-09T01:02:56.258Z,10.25
2022-12-09T01:06:57.809Z,9.63
2022-12-09T01:10:59.457Z,10.15
2022-12-09T01:15:01.075Z,9.90
2022-12-09T01:19:05.541Z,11.75
2022-12-09T01:23:07.095Z,11.90
2022-12-09T01:27:08.857Z,10.48
2022-12-09T01:31:18.186Z,10.48
2022-12-09T01:35:22.491Z,11.50
2022-12-09T01:39:26.770Z,10.02
2022-12-09T01:43:28.310Z,9.60
2022-12-09T01:47:32.951Z,11.35
2022-12-09T01:51:34.867Z,13.90
2022-12-09T01:55:36.483Z,14.80
2022-12-09T01:59:39.517Z,10.38
2022-12-09T02:03:41.193Z,10.23
2022-12-09T02:07:43.211Z,9.77
2022-12-09T02:12:16.315Z,9.88
2022-12-09T02:16:22.239Z,11.02
2022-12-09T02:20:32.698Z,12.27
2022-12-09T02:24:41.450Z,11.73
2022-12-09T02:29:17.245Z,11.43
2022-12-09T02:33:57.481Z,11.63
2022-12-09T02:38:07.351Z,11.98
2022-12-09T02:42:09.978Z,14.68
2022-12-09T02:46:13.183Z,12.70
2022-12-09T02:50:17.290Z,12.18
2022-12-09T02:54:19.538Z,14.38
2022-12-09T02:58:21.297Z,12.50
2022-12-09T03:02:29.953Z,14.07
2022-12-09T03:06:36.750Z,11.30
2022-12-09T03:10:48.971Z,10.68
2022-12-09T03:14:53.053Z,11.50
2022-12-09T03:18:58.847Z,12.20
2022-12-09T03:23:02.237Z,11.13
2022-12-09T03:27:07.139Z,13.20
2022-12-09T03:31:15.904Z,12.80
2022-12-09T03:35:26.625Z,8.70
2022-12-09T03:39:30.802Z,10.27
2022-12-09T03:43:35.326Z,11.63
2022-12-09T03:47:37.428Z,9.23
2022-12-09T03:51:49.762Z,11.50
2022-12-09T03:55:58.308Z,11.77
2022-12-09T04:00:02.231Z,11.02
2022-12-09T04:04:04.035Z,13.57
2022-12-09T04:08:05.999Z,11.95
2022-12-09T04:12:07.736Z,16.20
2022-12-09T04:16:10.122Z,14.63
2022-12-09T04:20:12.570Z,13.10
2022-12-09T04:24:15.918Z,15.90
2022-12-09T04:28:17.391Z,12.13
2022-12-09T04:32:18.923Z,13.27
2022-12-09T04:36:21.239Z,11.80
2022-12-09T04:40:24.173Z,13.75
2022-12-09T04:44:26.050Z,12.80
2022-12-09T04:48:28.558Z,13.55
2022-12-09T04:52:30.193Z,13.90
2022-12-09T04:56:32.556Z,15.00
2022-12-09T05:00:33.990Z,14.52
2022-12-09T05:04:35.924Z,12.15
2022-12-09T05:08:37.730Z,12.52
2022-12-09T05:12:39.933Z,15.23
2022-12-09T05:16:41.944Z,14.63
2022-12-09T05:20:43.919Z,17.05
2022-12-09T05:24:46.967Z,13.88
2022-12-09T05:28:50.432Z,15.50
2022-12-09T05:32:52.288Z,17.63
2022-12-09T05:36:54.200Z,14.82
2022-12-09T05:40:59.180Z,14.05
2022-12-09T05:45:01.148Z,17.25
2022-12-09T05:49:02.913Z,16.02
2022-12-09T05:53:04.528Z,17.15
2022-12-09T05:57:06.646Z,14.60
2022-12-09T06:01:09.451Z,15.90
2022-12-09T06:05:11.167Z,13.35
2022-12-09T06:09:13.324Z,15.55
2022-12-09T06:13:15.339Z,16.52
2022-12-09T06:17:17.251Z,15.07
2022-12-09T06:21:20.893Z,14.52
2022-12-09T06:25:22.729Z,15.50
2022-12-09T06:29:24.629Z,17.60
2022-12-09T06:33:53.044Z,16.75
2022-12-09T06:37:51.690Z,19.58
2022-12-09T06:41:53.327Z,14.20
2022-12-09T06:45:54.817Z,15.95
2022-12-09T06:50:04.350Z,17.35
2022-12-09T06:54:09.718Z,15.48
2022-12-09T06:58:11.249Z,15.98
2022-12-09T07:02:13.361Z,20.85
2022-12-09T07:06:21.092Z,17.45
2022-12-09T07:10:25.981Z,15.75
2022-12-09T07:14:28.190Z,17.60
2022-12-09T07:18:30.101Z,17.13
2022-12-09T07:22:41.432Z,16.38
2022-12-09T07:26:45.258Z,15.77
2022-12-09T07:30:46.863Z,17.08
2022-12-09T07:34:53.325Z,14.20
2022-12-09T07:39:03.952Z,17.63
2022-12-09T07:43:06.350Z,15.85
2022-12-09T07:47:08.076Z,22.90
2022-12-09T07:51:19.264Z,17.25
2022-12-09T07:55:24.637Z,19.45
2022-12-09T07:59:26.545Z,18.33
2022-12-09T08:03:28.349Z,19.33
2022-12-09T08:07:32.489Z,21.63
2022-12-09T08:11:37.517Z,18.77
2022-12-09T08:15:45.186Z,18.67
2022-12-09T08:24:43.422Z,18.02
2022-12-09T08:33:20.658Z,17.85
2022-12-09T08:38:06.045Z,17.52
2022-12-09T08:46:55.313Z,20.00
2022-12-09T09:11:43.454Z,26.08
2022-12-09T09:15:45.661Z,22.88
2022-12-09T09:19:47.855Z,23.27
2022-12-09T09:23:50.188Z,23.73
2022-12-09T09:27:51.788Z,23.15
2022-12-09T09:31:57.334Z,27.13
2022-12-09T09:36:05.508Z,27.42
2022-12-09T09:40:10.965Z,18.35
2022-12-09T09:44:34.689Z,22.30
2022-12-09T09:48:36.738Z,22.50
2022-12-09T09:52:42.193Z,21.90
2022-12-09T09:56:55.288Z,21.05
2022-12-09T10:01:12.224Z,20.65
2022-12-09T10:05:26.277Z,18.88
2022-12-09T10:09:45.077Z,21.13
2022-12-09T10:13:55.276Z,27.20
2022-12-09T10:18:19.465Z,27.60
2022-12-09T10:22:30.683Z,18.70
2022-12-09T10:26:32.791Z,21.02
2022-12-09T10:30:43.678Z,23.45
2022-12-09T10:34:47.725Z,25.95
2022-12-09T10:38:49.515Z,25.65
2022-12-09T10:43:13.120Z,23.80
2022-12-09T10:47:26.324Z,29.70
2022-12-09T10:51:31.177Z,20.63
2022-12-09T10:55:38.995Z,22.58
2022-12-09T10:59:43.124Z,24.95
2022-12-09T11:03:47.605Z,22.17
2022-12-09T11:07:51.299Z,21.48
2022-12-09T11:11:53.530Z,23.80
2022-12-09T11:15:59.476Z,25.10
2022-12-09T11:20:20.216Z,26.05
2022-12-09T11:24:24.922Z,24.20
2022-12-09T11:28:37.025Z,27.65
2022-12-09T11:32:52.056Z,22.45
2022-12-09T11:36:56.692Z,23.20
2022-12-09T11:41:15.505Z,24.90
2022-12-09T11:45:36.971Z,25.45
2022-12-09T11:50:06.324Z,24.48
2022-12-09T12:11:20.910Z,30.25
2022-12-09T12:19:51.833Z,25.42
2022-12-09T12:24:10.453Z,26.92
2022-12-09T12:28:50.482Z,27.10
2022-12-09T12:37:58.844Z,27.58
2022-12-09T12:42:21.815Z,28.55
2022-12-09T12:46:23.340Z,24.70
2022-12-09T12:50:43.834Z,30.83
2022-12-09T13:00:31.750Z,26.88
2022-12-09T13:05:35.860Z,32.05
2022-12-09T13:14:55.583Z,31.90
2022-12-09T13:19:07.369Z,26.33
2022-12-09T13:27:30.645Z,27.05
2022-12-09T13:31:35.483Z,26.77
2022-12-09T13:36:20.984Z,32.28
2022-12-09T13:41:10.677Z,26.38
2022-12-09T13:45:43.726Z,26.27
2022-12-09T13:56:06.987Z,28.35
2022-12-09T14:05:21.551Z,27.40
2022-12-09T14:31:20.624Z,35.45
2022-12-09T14:41:46.016Z,37.97
2022-12-09T14:57:07.904Z,42.60
2022-12-09T15:06:04.159Z,45.72
2022-12-09T17:10:32.857Z,56.78
2022-12-09T17:15:08.324Z,57.47
2022-12-09T17:23:52.845Z,60.47
2022-12-09T17:42:48.414Z,57.65
2022-12-09T17:47:12.305Z,68.53
2022-12-09T17:51:20.103Z,64.43
2022-12-09T17:55:22.096Z,66.75
2022-12-09T17:59:23.611Z,62.42
2022-12-09T18:03:54.475Z,58.53
2022-12-09T18:12:41.625Z,59.95
2022-12-09T18:17:44.290Z,55.40
2022-12-09T18:26:55.652Z,52.85
2022-12-09T18:30:58.329Z,57.83
2022-12-09T18:35:01.118Z,63.95
2022-12-09T18:39:03.720Z,66.93
2022-12-09T18:52:56.571Z,58.13
2022-12-09T18:57:02.540Z,54.60
2022-12-09T19:01:22.136Z,62.97
2022-12-09T19:10:17.658Z,61.05
2022-12-09T19:14:50.248Z,58.80
2022-12-09T19:29:23.503Z,67.27
2022-12-09T19:34:34.937Z,61.90
2022-12-09T19:39:17.595Z,62.55
2022-12-09T19:43:46.946Z,58.55
2022-12-09T19:47:53.937Z,57.08
2022-12-09T19:51:55.407Z,54.03
2022-12-09T19:56:00.615Z,56.90
2022-12-09T20:00:02.772Z,53.97
2022-12-09T20:04:39.859Z,54.10
2022-12-09T20:08:33.463Z,51.42
2022-12-09T20:12:37.167Z,53.05
2022-12-09T20:16:39.350Z,52.85
2022-12-09T20:20:45.715Z,56.40
2022-12-09T20:24:50.663Z,56.60
2022-12-09T20:28:55.419Z,57.35
2022-12-09T20:32:57.200Z,52.38
2022-12-09T20:37:04.545Z,53.33
2022-12-09T20:41:09.760Z,52.10
2022-12-09T20:45:11.679Z,49.78
2022-12-09T20:49:13.220Z,54.80
2022-12-09T20:58:03.647Z,49.40
2022-12-09T21:02:20.240Z,53.33
2022-12-09T21:06:38.425Z,60.50
2022-12-09T21:10:52.363Z,56.60
2022-12-09T21:14:59.157Z,48.80
2022-12-09T21:19:15.773Z,55.77
2022-12-09T21:23:33.931Z,50.60
2022-12-09T21:27:36.025Z,46.90
2022-12-09T21:31:55.562Z,46.85
2022-12-09T21:35:58.664Z,44.25
2022-12-09T21:40:07.671Z,43.53
2022-12-09T21:44:22.641Z,39.65
2022-12-09T21:48:24.131Z,42.08
2022-12-09T21:52:29.868Z,47.58
2022-12-09T21:56:38.219Z,42.97
2022-12-09T22:00:39.734Z,39.22
2022-12-09T22:04:41.692Z,42.63
2022-12-09T22:08:47.426Z,41.67
2022-12-09T22:12:49.092Z,48.65
2022-12-09T22:16:50.717Z,50.83
2022-12-09T22:25:14.227Z,47.88
2022-12-09T22:29:17.047Z,47.13
2022-12-09T22:33:18.504Z,45.80
2022-12-09T22:37:42.648Z,47.13
2022-12-09T22:41:43.862Z,47.13
2022-12-09T22:45:45.363Z,48.60
2022-12-09T22:49:47.812Z,45.45
2022-12-09T22:53:57.807Z,52.08
2022-12-09T22:57:59.340Z,46.80
2022-12-09T23:02:00.810Z,48.47
2022-12-09T23:06:08.272Z,49.63
2022-12-09T23:10:10.911Z,43.05
2022-12-09T23:14:13.552Z,48.90
2022-12-09T23:18:15.002Z,47.88
2022-12-09T23:22:18.821Z,48.53
2022-12-09T23:26:28.740Z,49.03
2022-12-09T23:30:30.268Z,53.95
2022-12-09T23:34:31.861Z,56.45
2022-12-09T23:38:38.476Z,53.05
2022-12-09T23:42:43.529Z,49.93
2022-12-09T23:46:45.293Z,52.00
2022-12-09T23:50:47.870Z,61.35
2022-12-09T23:54:49.324Z,50.13
2022-12-09T23:58:58.899Z,51.08
